aviador You're here:

OTHH Decoded Metar

in
Report Time2017-06-25 20:00:00
UTC Time2017-06-25 20:42:40
Flight Rules vfr VFR
Wind290° at 05 kt
W.Decomp.*RWY 34: 3.2 kt HW 3.8 kt LCW
W.Rank290° ranks 20
Current wind is below 290° avg. (8.0)
Visibility9999 m
Phenomena:N/A
Clouds:N/A
Expected CloudBase > 7,200 ft AGL from Temp-Dew spread
CeilingNone
Temp31°C
Dew Point13°C (33% RH)
Heat Index30.0°C
AAT30.1°C
QNH0999 hPa
Raw Report
METAR OTHH 252000Z 29005KT CAVOK 31/13 Q0999 NOSIG=

Extra information for OTHH:More info

Social comments